sensor_id;sensor_type;location;lat;lon;timestamp;pressure;altitude;pressure_sealevel;temperature;humidity
7966;BME280;4028;43.272;26.932;2022-12-13T00:00:36;98540.16;;;3.49;100.00
7966;BME280;4028;43.272;26.932;2022-12-13T00:03:02;98534.31;;;3.57;100.00
7966;BME280;4028;43.272;26.932;2022-12-13T00:05:27;98542.91;;;3.59;100.00
7966;BME280;4028;43.272;26.932;2022-12-13T00:07:53;98544.69;;;3.58;100.00
7966;BME280;4028;43.272;26.932;2022-12-13T00:10:19;98546.38;;;3.71;100.00
7966;BME280;4028;43.272;26.932;2022-12-13T00:12:44;98547.06;;;3.61;100.00
7966;BME280;4028;43.272;26.932;2022-12-13T00:15:10;98544.56;;;3.60;100.00
7966;BME280;4028;43.272;26.932;2022-12-13T00:17:35;98545.44;;;3.36;100.00
7966;BME280;4028;43.272;26.932;2022-12-13T00:20:01;98555.22;;;3.46;100.00
7966;BME280;4028;43.272;26.932;2022-12-13T00:22:27;98552.06;;;3.29;100.00
7966;BME280;4028;43.272;26.932;2022-12-13T00:24:54;98552.41;;;3.25;100.00
7966;BME280;4028;43.272;26.932;2022-12-13T00:27:21;98565.09;;;3.18;100.00
7966;BME280;4028;43.272;26.932;2022-12-13T00:29:46;98572.81;;;3.20;100.00
7966;BME280;4028;43.272;26.932;2022-12-13T00:32:12;98573.19;;;3.26;100.00
7966;BME280;4028;43.272;26.932;2022-12-13T00:34:37;98580.53;;;3.21;100.00
7966;BME280;4028;43.272;26.932;2022-12-13T00:37:02;98578.88;;;3.20;100.00
7966;BME280;4028;43.272;26.932;2022-12-13T00:39:28;98574.72;;;3.18;100.00
7966;BME280;4028;43.272;26.932;2022-12-13T00:41:54;98574.28;;;3.24;100.00
7966;BME280;4028;43.272;26.932;2022-12-13T00:44:19;98590.66;;;3.26;100.00
7966;BME280;4028;43.272;26.932;2022-12-13T00:46:45;98589.00;;;3.25;100.00
7966;BME280;4028;43.272;26.932;2022-12-13T00:49:12;98600.50;;;3.22;100.00
7966;BME280;4028;43.272;26.932;2022-12-13T00:51:38;98589.53;;;3.17;100.00
7966;BME280;4028;43.272;26.932;2022-12-13T00:54:04;98597.19;;;3.20;100.00
7966;BME280;4028;43.272;26.932;2022-12-13T00:56:31;98595.63;;;3.18;100.00
7966;BME280;4028;43.272;26.932;2022-12-13T00:58:57;98593.22;;;3.15;100.00
7966;BME280;4028;43.272;26.932;2022-12-13T01:01:28;98600.75;;;3.19;100.00
7966;BME280;4028;43.272;26.932;2022-12-13T01:03:56;98596.69;;;3.15;100.00
7966;BME280;4028;43.272;26.932;2022-12-13T01:06:32;98606.13;;;3.05;100.00
7966;BME280;4028;43.272;26.932;2022-12-13T01:08:59;98553.25;;;2.65;100.00
7966;BME280;4028;43.272;26.932;2022-12-13T01:11:25;98570.25;;;2.83;100.00
7966;BME280;4028;43.272;26.932;2022-12-13T01:13:51;98589.56;;;2.80;100.00
7966;BME280;4028;43.272;26.932;2022-12-13T01:16:16;98594.78;;;2.93;100.00
7966;BME280;4028;43.272;26.932;2022-12-13T01:18:43;98585.03;;;2.95;100.00
7966;BME280;4028;43.272;26.932;2022-12-13T01:21:12;98572.34;;;3.02;100.00
7966;BME280;4028;43.272;26.932;2022-12-13T01:23:38;98580.19;;;3.02;100.00
7966;BME280;4028;43.272;26.932;2022-12-13T01:26:05;98566.13;;;3.16;100.00
7966;BME280;4028;43.272;26.932;2022-12-13T01:28:32;98571.00;;;3.09;100.00
7966;BME280;4028;43.272;26.932;2022-12-13T01:31:00;98568.50;;;3.07;100.00
7966;BME280;4028;43.272;26.932;2022-12-13T01:33:26;98572.44;;;3.13;100.00
7966;BME280;4028;43.272;26.932;2022-12-13T01:35:53;98563.31;;;3.19;100.00
7966;BME280;4028;43.272;26.932;2022-12-13T01:38:18;98569.59;;;3.16;100.00
7966;BME280;4028;43.272;26.932;2022-12-13T01:40:46;98568.03;;;3.13;100.00
7966;BME280;4028;43.272;26.932;2022-12-13T01:43:15;98552.63;;;2.98;100.00
7966;BME280;4028;43.272;26.932;2022-12-13T01:45:42;98537.28;;;2.93;100.00
7966;BME280;4028;43.272;26.932;2022-12-13T01:48:18;98544.00;;;2.84;100.00
7966;BME280;4028;43.272;26.932;2022-12-13T01:50:49;98558.63;;;2.87;100.00
7966;BME280;4028;43.272;26.932;2022-12-13T01:53:20;98548.31;;;2.73;100.00
7966;BME280;4028;43.272;26.932;2022-12-13T01:55:51;98549.63;;;2.54;100.00
7966;BME280;4028;43.272;26.932;2022-12-13T01:58:18;98560.69;;;2.45;100.00
7966;BME280;4028;43.272;26.932;2022-12-13T02:00:45;98535.34;;;2.47;100.00
7966;BME280;4028;43.272;26.932;2022-12-13T02:03:12;98543.16;;;2.47;100.00
7966;BME280;4028;43.272;26.932;2022-12-13T02:05:43;98549.41;;;2.57;100.00
7966;BME280;4028;43.272;26.932;2022-12-13T02:08:11;98556.50;;;2.55;100.00
7966;BME280;4028;43.272;26.932;2022-12-13T02:10:38;98571.16;;;2.45;100.00
7966;BME280;4028;43.272;26.932;2022-12-13T02:13:04;98566.81;;;2.07;100.00
7966;BME280;4028;43.272;26.932;2022-12-13T02:15:55;98590.31;;;2.20;100.00
7966;BME280;4028;43.272;26.932;2022-12-13T02:18:28;98576.09;;;2.12;100.00
7966;BME280;4028;43.272;26.932;2022-12-13T02:23:45;98564.38;;;2.04;100.00
7966;BME280;4028;43.272;26.932;2022-12-13T02:26:36;98573.16;;;2.03;100.00
7966;BME280;4028;43.272;26.932;2022-12-13T02:31:42;98581.53;;;1.96;100.00
7966;BME280;4028;43.272;26.932;2022-12-13T02:34:34;98586.50;;;1.99;100.00
7966;BME280;4028;43.272;26.932;2022-12-13T02:37:10;98591.53;;;2.15;100.00
7966;BME280;4028;43.272;26.932;2022-12-13T02:39:43;98594.56;;;2.08;100.00
7966;BME280;4028;43.272;26.932;2022-12-13T02:42:34;98596.31;;;1.82;100.00
7966;BME280;4028;43.272;26.932;2022-12-13T02:45:09;98597.69;;;1.88;100.00
7966;BME280;4028;43.272;26.932;2022-12-13T02:47:37;98574.41;;;1.98;100.00
7966;BME280;4028;43.272;26.932;2022-12-13T02:50:06;98591.22;;;1.81;100.00
7966;BME280;4028;43.272;26.932;2022-12-13T02:52:32;98604.03;;;1.71;100.00
7966;BME280;4028;43.272;26.932;2022-12-13T02:54:58;98597.31;;;1.54;100.00
7966;BME280;4028;43.272;26.932;2022-12-13T02:57:39;98599.53;;;1.61;100.00
7966;BME280;4028;43.272;26.932;2022-12-13T03:00:11;98595.63;;;1.53;100.00
7966;BME280;4028;43.272;26.932;2022-12-13T03:03:12;98600.84;;;1.53;100.00
7966;BME280;4028;43.272;26.932;2022-12-13T03:05:55;98598.38;;;1.65;100.00
7966;BME280;4028;43.272;26.932;2022-12-13T03:08:51;98592.72;;;1.58;100.00
7966;BME280;4028;43.272;26.932;2022-12-13T03:11:20;98601.72;;;1.67;100.00
7966;BME280;4028;43.272;26.932;2022-12-13T03:18:55;98600.47;;;1.33;100.00
7966;BME280;4028;43.272;26.932;2022-12-13T03:21:22;98613.13;;;1.39;100.00
7966;BME280;4028;43.272;26.932;2022-12-13T03:23:47;98621.78;;;1.39;100.00
7966;BME280;4028;43.272;26.932;2022-12-13T03:26:16;98620.47;;;1.32;100.00
7966;BME280;4028;43.272;26.932;2022-12-13T03:28:43;98616.31;;;1.29;100.00
7966;BME280;4028;43.272;26.932;2022-12-13T03:31:08;98631.88;;;1.17;100.00
7966;BME280;4028;43.272;26.932;2022-12-13T03:33:34;98630.47;;;1.25;100.00
7966;BME280;4028;43.272;26.932;2022-12-13T03:36:00;98632.81;;;1.16;100.00
7966;BME280;4028;43.272;26.932;2022-12-13T03:38:27;98627.72;;;1.14;100.00
7966;BME280;4028;43.272;26.932;2022-12-13T03:40:57;98630.63;;;1.10;100.00
7966;BME280;4028;43.272;26.932;2022-12-13T03:43:24;98634.72;;;1.14;100.00
7966;BME280;4028;43.272;26.932;2022-12-13T03:45:51;98640.00;;;1.12;100.00
7966;BME280;4028;43.272;26.932;2022-12-13T03:48:17;98649.53;;;0.99;100.00
7966;BME280;4028;43.272;26.932;2022-12-13T03:50:42;98646.44;;;1.07;100.00
7966;BME280;4028;43.272;26.932;2022-12-13T03:53:08;98648.97;;;1.08;100.00
7966;BME280;4028;43.272;26.932;2022-12-13T03:55:33;98635.28;;;1.04;100.00
7966;BME280;4028;43.272;26.932;2022-12-13T03:57:59;98642.66;;;0.98;100.00
7966;BME280;4028;43.272;26.932;2022-12-13T04:00:24;98644.59;;;0.94;100.00
7966;BME280;4028;43.272;26.932;2022-12-13T04:02:50;98644.59;;;0.94;100.00
7966;BME280;4028;43.272;26.932;2022-12-13T04:05:15;98642.19;;;0.91;100.00
7966;BME280;4028;43.272;26.932;2022-12-13T04:07:42;98630.59;;;0.83;100.00
7966;BME280;4028;43.272;26.932;2022-12-13T04:10:08;98629.94;;;0.79;100.00
7966;BME280;4028;43.272;26.932;2022-12-13T04:12:33;98626.13;;;0.56;100.00
7966;BME280;4028;43.272;26.932;2022-12-13T04:15:17;98630.88;;;0.49;100.00
7966;BME280;4028;43.272;26.932;2022-12-13T04:17:43;98629.22;;;0.48;100.00
7966;BME280;4028;43.272;26.932;2022-12-13T04:20:09;98598.81;;;0.49;100.00
7966;BME280;4028;43.272;26.932;2022-12-13T04:22:34;98623.63;;;0.55;100.00
7966;BME280;4028;43.272;26.932;2022-12-13T04:25:00;98623.63;;;0.40;100.00
7966;BME280;4028;43.272;26.932;2022-12-13T04:27:25;98614.50;;;0.33;100.00
7966;BME280;4028;43.272;26.932;2022-12-13T04:29:51;98631.63;;;0.37;100.00
7966;BME280;4028;43.272;26.932;2022-12-13T04:32:16;98626.22;;;0.26;100.00
7966;BME280;4028;43.272;26.932;2022-12-13T04:34:42;98620.34;;;0.08;100.00
7966;BME280;4028;43.272;26.932;2022-12-13T04:37:07;98618.56;;;0.09;100.00
7966;BME280;4028;43.272;26.932;2022-12-13T04:39:33;98605.31;;;0.13;100.00
7966;BME280;4028;43.272;26.932;2022-12-13T04:41:58;98601.59;;;0.17;100.00
7966;BME280;4028;43.272;26.932;2022-12-13T04:44:24;98611.44;;;0.12;100.00
7966;BME280;4028;43.272;26.932;2022-12-13T04:46:49;98597.41;;;0.01;100.00
7966;BME280;4028;43.272;26.932;2022-12-13T04:49:15;98607.59;;;0.04;100.00
7966;BME280;4028;43.272;26.932;2022-12-13T04:51:40;98618.69;;;0.07;100.00
7966;BME280;4028;43.272;26.932;2022-12-13T04:54:06;98623.41;;;0.15;100.00
7966;BME280;4028;43.272;26.932;2022-12-13T04:56:32;98607.44;;;0.07;100.00
7966;BME280;4028;43.272;26.932;2022-12-13T04:58:58;98630.28;;;0.02;100.00
7966;BME280;4028;43.272;26.932;2022-12-13T05:01:23;98638.06;;;-0.13;100.00
7966;BME280;4028;43.272;26.932;2022-12-13T05:03:48;98619.19;;;-0.16;100.00
7966;BME280;4028;43.272;26.932;2022-12-13T05:06:14;98638.09;;;0.02;100.00
7966;BME280;4028;43.272;26.932;2022-12-13T05:08:40;98656.59;;;0.11;100.00
7966;BME280;4028;43.272;26.932;2022-12-13T05:11:07;98634.94;;;0.11;100.00
7966;BME280;4028;43.272;26.932;2022-12-13T05:13:33;98635.78;;;0.11;100.00
7966;BME280;4028;43.272;26.932;2022-12-13T05:16:01;98643.81;;;-0.08;100.00
7966;BME280;4028;43.272;26.932;2022-12-13T05:18:27;98644.41;;;-0.03;100.00
7966;BME280;4028;43.272;26.932;2022-12-13T05:20:53;98633.88;;;-0.01;100.00
7966;BME280;4028;43.272;26.932;2022-12-13T05:23:19;98633.78;;;-0.14;100.00
7966;BME280;4028;43.272;26.932;2022-12-13T05:25:46;98633.00;;;-0.30;100.00
7966;BME280;4028;43.272;26.932;2022-12-13T05:28:11;98643.97;;;-0.25;100.00
7966;BME280;4028;43.272;26.932;2022-12-13T05:30:38;98645.81;;;-0.27;100.00
7966;BME280;4028;43.272;26.932;2022-12-13T05:33:04;98659.78;;;-0.14;100.00
7966;BME280;4028;43.272;26.932;2022-12-13T05:35:29;98666.66;;;-0.13;100.00
7966;BME280;4028;43.272;26.932;2022-12-13T05:37:55;98675.66;;;-0.18;100.00
7966;BME280;4028;43.272;26.932;2022-12-13T05:40:28;98686.22;;;-0.21;100.00
7966;BME280;4028;43.272;26.932;2022-12-13T05:42:54;98707.13;;;-0.23;100.00
7966;BME280;4028;43.272;26.932;2022-12-13T05:45:19;98716.16;;;-0.14;100.00
7966;BME280;4028;43.272;26.932;2022-12-13T05:47:45;98732.09;;;-0.05;100.00
7966;BME280;4028;43.272;26.932;2022-12-13T05:50:12;98729.06;;;-0.13;100.00
7966;BME280;4028;43.272;26.932;2022-12-13T05:52:38;98742.09;;;-0.29;100.00
7966;BME280;4028;43.272;26.932;2022-12-13T05:55:04;98737.59;;;-0.41;100.00
7966;BME280;4028;43.272;26.932;2022-12-13T05:57:29;98747.97;;;-0.25;100.00
7966;BME280;4028;43.272;26.932;2022-12-13T05:59:55;98738.19;;;-0.36;100.00
7966;BME280;4028;43.272;26.932;2022-12-13T06:02:22;98749.66;;;-0.24;100.00
7966;BME280;4028;43.272;26.932;2022-12-13T06:04:48;98744.31;;;-0.07;100.00
7966;BME280;4028;43.272;26.932;2022-12-13T06:07:13;98705.22;;;-0.35;100.00
7966;BME280;4028;43.272;26.932;2022-12-13T06:09:39;98751.75;;;-0.15;100.00
7966;BME280;4028;43.272;26.932;2022-12-13T06:12:04;98754.66;;;-0.05;100.00
7966;BME280;4028;43.272;26.932;2022-12-13T06:14:30;98752.75;;;0.13;100.00
7966;BME280;4028;43.272;26.932;2022-12-13T06:16:55;98762.81;;;0.19;100.00
7966;BME280;4028;43.272;26.932;2022-12-13T06:19:21;98766.34;;;0.18;100.00
7966;BME280;4028;43.272;26.932;2022-12-13T06:21:48;98782.78;;;0.18;100.00
7966;BME280;4028;43.272;26.932;2022-12-13T06:24:15;98791.69;;;0.14;100.00
7966;BME280;4028;43.272;26.932;2022-12-13T06:26:41;98799.50;;;0.14;100.00
7966;BME280;4028;43.272;26.932;2022-12-13T06:29:06;98791.44;;;0.19;100.00
7966;BME280;4028;43.272;26.932;2022-12-13T06:31:32;98797.56;;;0.18;100.00
7966;BME280;4028;43.272;26.932;2022-12-13T06:34:01;98784.97;;;0.10;100.00
7966;BME280;4028;43.272;26.932;2022-12-13T06:36:26;98796.59;;;0.35;100.00
7966;BME280;4028;43.272;26.932;2022-12-13T06:38:52;98810.03;;;0.43;100.00
7966;BME280;4028;43.272;26.932;2022-12-13T06:41:17;98799.88;;;0.38;100.00
7966;BME280;4028;43.272;26.932;2022-12-13T06:43:44;98802.88;;;0.16;100.00
7966;BME280;4028;43.272;26.932;2022-12-13T06:46:10;98807.56;;;0.10;100.00
7966;BME280;4028;43.272;26.932;2022-12-13T06:48:36;98791.31;;;0.06;100.00
7966;BME280;4028;43.272;26.932;2022-12-13T06:51:02;98797.97;;;0.26;100.00
7966;BME280;4028;43.272;26.932;2022-12-13T06:53:28;98803.78;;;0.15;100.00
7966;BME280;4028;43.272;26.932;2022-12-13T06:55:55;98798.50;;;0.17;100.00
7966;BME280;4028;43.272;26.932;2022-12-13T06:58:20;98791.53;;;0.17;100.00
7966;BME280;4028;43.272;26.932;2022-12-13T07:00:46;98799.44;;;0.16;100.00
7966;BME280;4028;43.272;26.932;2022-12-13T07:03:11;98805.13;;;0.22;100.00
7966;BME280;4028;43.272;26.932;2022-12-13T07:05:37;98816.38;;;0.07;100.00
7966;BME280;4028;43.272;26.932;2022-12-13T07:08:03;98802.41;;;0.24;100.00
7966;BME280;4028;43.272;26.932;2022-12-13T07:10:29;98798.31;;;0.20;100.00
7966;BME280;4028;43.272;26.932;2022-12-13T07:12:55;98810.41;;;0.21;100.00
7966;BME280;4028;43.272;26.932;2022-12-13T07:15:21;98816.69;;;0.33;100.00
7966;BME280;4028;43.272;26.932;2022-12-13T07:17:50;98829.34;;;0.39;100.00
7966;BME280;4028;43.272;26.932;2022-12-13T07:20:16;98826.84;;;0.37;100.00
7966;BME280;4028;43.272;26.932;2022-12-13T07:22:43;98827.97;;;0.47;100.00
7966;BME280;4028;43.272;26.932;2022-12-13T07:25:09;98845.06;;;0.37;100.00
7966;BME280;4028;43.272;26.932;2022-12-13T07:27:35;98836.25;;;0.54;100.00
7966;BME280;4028;43.272;26.932;2022-12-13T07:30:01;98829.75;;;0.61;100.00
7966;BME280;4028;43.272;26.932;2022-12-13T07:32:27;98833.97;;;0.64;100.00
7966;BME280;4028;43.272;26.932;2022-12-13T07:34:52;98857.25;;;0.67;100.00
7966;BME280;4028;43.272;26.932;2022-12-13T07:37:18;98855.38;;;0.69;100.00
7966;BME280;4028;43.272;26.932;2022-12-13T07:39:44;98866.22;;;0.61;100.00
7966;BME280;4028;43.272;26.932;2022-12-13T07:42:09;98862.19;;;0.41;100.00
7966;BME280;4028;43.272;26.932;2022-12-13T07:44:35;98867.38;;;0.41;100.00
7966;BME280;4028;43.272;26.932;2022-12-13T07:47:00;98855.81;;;0.31;100.00
7966;BME280;4028;43.272;26.932;2022-12-13T07:49:26;98867.22;;;0.29;100.00
7966;BME280;4028;43.272;26.932;2022-12-13T07:51:51;98873.59;;;0.39;100.00
7966;BME280;4028;43.272;26.932;2022-12-13T07:54:17;98888.47;;;0.37;100.00
7966;BME280;4028;43.272;26.932;2022-12-13T07:56:42;98886.75;;;0.51;100.00
7966;BME280;4028;43.272;26.932;2022-12-13T07:59:09;98878.22;;;0.64;100.00
7966;BME280;4028;43.272;26.932;2022-12-13T08:01:34;98885.81;;;0.52;100.00
7966;BME280;4028;43.272;26.932;2022-12-13T08:04:03;98892.03;;;0.80;100.00
7966;BME280;4028;43.272;26.932;2022-12-13T08:06:33;98900.06;;;0.77;100.00
7966;BME280;4028;43.272;26.932;2022-12-13T08:08:59;98883.19;;;0.68;100.00
7966;BME280;4028;43.272;26.932;2022-12-13T08:11:24;98906.97;;;0.92;100.00
7966;BME280;4028;43.272;26.932;2022-12-13T08:13:52;98914.97;;;0.89;100.00
7966;BME280;4028;43.272;26.932;2022-12-13T08:16:18;98898.03;;;0.66;100.00
7966;BME280;4028;43.272;26.932;2022-12-13T08:18:44;98913.28;;;0.88;100.00
7966;BME280;4028;43.272;26.932;2022-12-13T08:21:11;98916.63;;;1.20;100.00
7966;BME280;4028;43.272;26.932;2022-12-13T08:23:36;98908.56;;;1.39;100.00
7966;BME280;4028;43.272;26.932;2022-12-13T08:26:03;98897.38;;;1.51;100.00
7966;BME280;4028;43.272;26.932;2022-12-13T08:28:30;98900.16;;;1.48;100.00
7966;BME280;4028;43.272;26.932;2022-12-13T08:31:02;98895.88;;;1.62;100.00
7966;BME280;4028;43.272;26.932;2022-12-13T08:33:27;98903.31;;;1.68;100.00
7966;BME280;4028;43.272;26.932;2022-12-13T08:35:54;98896.81;;;1.75;100.00
7966;BME280;4028;43.272;26.932;2022-12-13T08:38:19;98901.56;;;1.68;100.00
7966;BME280;4028;43.272;26.932;2022-12-13T08:40:45;98904.81;;;1.72;100.00
7966;BME280;4028;43.272;26.932;2022-12-13T08:43:10;98909.59;;;1.79;100.00
7966;BME280;4028;43.272;26.932;2022-12-13T08:45:36;98905.25;;;1.93;100.00
7966;BME280;4028;43.272;26.932;2022-12-13T08:48:02;98915.41;;;2.12;100.00
7966;BME280;4028;43.272;26.932;2022-12-13T08:50:28;98911.00;;;2.12;100.00
7966;BME280;4028;43.272;26.932;2022-12-13T08:52:54;98911.88;;;1.84;100.00
7966;BME280;4028;43.272;26.932;2022-12-13T08:55:20;98926.06;;;1.66;100.00
7966;BME280;4028;43.272;26.932;2022-12-13T08:57:45;98925.59;;;1.88;100.00
7966;BME280;4028;43.272;26.932;2022-12-13T09:00:14;98914.75;;;1.94;100.00
7966;BME280;4028;43.272;26.932;2022-12-13T09:02:40;98904.94;;;2.26;100.00
7966;BME280;4028;43.272;26.932;2022-12-13T09:05:07;98887.09;;;2.32;100.00
7966;BME280;4028;43.272;26.932;2022-12-13T09:07:33;98890.09;;;2.53;100.00
7966;BME280;4028;43.272;26.932;2022-12-13T09:10:00;98898.59;;;2.70;100.00
7966;BME280;4028;43.272;26.932;2022-12-13T09:12:26;98908.19;;;2.56;100.00
7966;BME280;4028;43.272;26.932;2022-12-13T09:14:51;98903.75;;;2.84;100.00
7966;BME280;4028;43.272;26.932;2022-12-13T09:17:17;98895.34;;;3.19;100.00
7966;BME280;4028;43.272;26.932;2022-12-13T09:19:42;98896.41;;;3.29;100.00
7966;BME280;4028;43.272;26.932;2022-12-13T09:22:08;98893.91;;;3.40;100.00
7966;BME280;4028;43.272;26.932;2022-12-13T09:24:34;98882.50;;;3.28;100.00
7966;BME280;4028;43.272;26.932;2022-12-13T09:26:59;98890.63;;;2.98;100.00
7966;BME280;4028;43.272;26.932;2022-12-13T09:29:25;98890.13;;;3.31;100.00
7966;BME280;4028;43.272;26.932;2022-12-13T09:31:50;98895.66;;;3.27;100.00
7966;BME280;4028;43.272;26.932;2022-12-13T09:34:16;98896.84;;;3.48;100.00
7966;BME280;4028;43.272;26.932;2022-12-13T09:36:41;98887.72;;;3.28;94.78
7966;BME280;4028;43.272;26.932;2022-12-13T09:39:07;98886.56;;;3.20;97.34
7966;BME280;4028;43.272;26.932;2022-12-13T09:41:47;98892.00;;;3.17;100.00
7966;BME280;4028;43.272;26.932;2022-12-13T09:46:48;98883.22;;;3.18;87.52
7966;BME280;4028;43.272;26.932;2022-12-13T09:49:33;98864.19;;;3.16;85.22
7966;BME280;4028;43.272;26.932;2022-12-13T09:52:02;98869.72;;;3.11;90.33
7966;BME280;4028;43.272;26.932;2022-12-13T09:54:28;98847.22;;;3.21;85.21
7966;BME280;4028;43.272;26.932;2022-12-13T09:56:55;98869.41;;;3.41;86.52
7966;BME280;4028;43.272;26.932;2022-12-13T09:59:27;98853.75;;;3.28;83.88
7966;BME280;4028;43.272;26.932;2022-12-13T10:01:55;98855.81;;;3.23;85.96
7966;BME280;4028;43.272;26.932;2022-12-13T10:04:22;98850.16;;;3.17;90.40
7966;BME280;4028;43.272;26.932;2022-12-13T10:06:52;98864.78;;;3.06;91.36
7966;BME280;4028;43.272;26.932;2022-12-13T10:09:18;98857.28;;;3.27;87.26
7966;BME280;4028;43.272;26.932;2022-12-13T10:11:49;98871.22;;;3.28;86.39
7966;BME280;4028;43.272;26.932;2022-12-13T10:14:37;98864.59;;;3.35;86.62
7966;BME280;4028;43.272;26.932;2022-12-13T10:17:07;98862.00;;;3.35;75.58
7966;BME280;4028;43.272;26.932;2022-12-13T10:19:39;98872.53;;;3.21;75.11
7966;BME280;4028;43.272;26.932;2022-12-13T10:22:09;98868.06;;;3.48;76.70
7966;BME280;4028;43.272;26.932;2022-12-13T10:30:09;98864.22;;;3.78;78.74
7966;BME280;4028;43.272;26.932;2022-12-13T10:32:47;98868.19;;;3.96;78.41
7966;BME280;4028;43.272;26.932;2022-12-13T10:38:01;98837.09;;;3.91;73.45
7966;BME280;4028;43.272;26.932;2022-12-13T10:40:45;98838.81;;;4.04;74.55
7966;BME280;4028;43.272;26.932;2022-12-13T10:43:23;98836.69;;;3.85;74.84
7966;BME280;4028;43.272;26.932;2022-12-13T10:50:59;98838.56;;;3.96;66.88
7966;BME280;4028;43.272;26.932;2022-12-13T10:53:31;98837.66;;;4.08;67.29
7966;BME280;4028;43.272;26.932;2022-12-13T10:55:58;98839.59;;;3.93;64.51
7966;BME280;4028;43.272;26.932;2022-12-13T10:58:39;98840.91;;;3.75;66.07
7966;BME280;4028;43.272;26.932;2022-12-13T11:03:42;98839.44;;;3.71;67.48
7966;BME280;4028;43.272;26.932;2022-12-13T11:06:15;98837.03;;;3.68;65.78
7966;BME280;4028;43.272;26.932;2022-12-13T11:08:42;98846.34;;;3.72;66.17
7966;BME280;4028;43.272;26.932;2022-12-13T11:11:08;98825.03;;;3.65;66.29
7966;BME280;4028;43.272;26.932;2022-12-13T11:13:37;98835.25;;;3.81;67.13
7966;BME280;4028;43.272;26.932;2022-12-13T11:16:31;98840.88;;;3.87;69.42
7966;BME280;4028;43.272;26.932;2022-12-13T11:19:01;98843.97;;;3.69;65.95
7966;BME280;4028;43.272;26.932;2022-12-13T11:21:29;98843.06;;;3.44;65.64
7966;BME280;4028;43.272;26.932;2022-12-13T11:23:57;98841.78;;;3.50;64.20
7966;BME280;4028;43.272;26.932;2022-12-13T11:26:25;98839.66;;;3.68;63.52
7966;BME280;4028;43.272;26.932;2022-12-13T11:40:23;98840.91;;;3.62;62.59
7966;BME280;4028;43.272;26.932;2022-12-13T11:43:04;98840.31;;;3.58;62.61
7966;BME280;4028;43.272;26.932;2022-12-13T11:45:38;98834.97;;;3.47;63.61
7966;BME280;4028;43.272;26.932;2022-12-13T11:48:59;98838.75;;;3.56;62.48
7966;BME280;4028;43.272;26.932;2022-12-13T11:51:07;98839.81;;;3.28;61.64
7966;BME280;4028;43.272;26.932;2022-12-13T11:58:46;98806.44;;;3.31;60.92
7966;BME280;4028;43.272;26.932;2022-12-13T12:01:17;98820.66;;;3.27;62.36
7966;BME280;4028;43.272;26.932;2022-12-13T12:06:49;98802.38;;;2.89;62.83
7966;BME280;4028;43.272;26.932;2022-12-13T12:09:18;98811.88;;;2.77;64.10
7966;BME280;4028;43.272;26.932;2022-12-13T12:11:56;98810.00;;;2.79;64.17
7966;BME280;4028;43.272;26.932;2022-12-13T12:16:58;98811.25;;;2.86;63.85
7966;BME280;4028;43.272;26.932;2022-12-13T12:19:29;98819.00;;;2.88;62.71
7966;BME280;4028;43.272;26.932;2022-12-13T12:27:38;98812.81;;;2.76;62.99
7966;BME280;4028;43.272;26.932;2022-12-13T12:43:34;98816.84;;;2.55;70.38
7966;BME280;4028;43.272;26.932;2022-12-13T12:46:30;98820.16;;;2.44;68.24
7966;BME280;4028;43.272;26.932;2022-12-13T12:49:22;98820.22;;;2.57;70.19
7966;BME280;4028;43.272;26.932;2022-12-13T13:00:09;98840.56;;;2.52;66.22
7966;BME280;4028;43.272;26.932;2022-12-13T13:07:49;98855.53;;;2.63;64.25
7966;BME280;4028;43.272;26.932;2022-12-13T13:10:17;98853.53;;;2.66;65.71
7966;BME280;4028;43.272;26.932;2022-12-13T13:12:43;98859.00;;;2.63;64.48
7966;BME280;4028;43.272;26.932;2022-12-13T13:17:58;98868.91;;;2.71;61.41
7966;BME280;4028;43.272;26.932;2022-12-13T13:20:24;98871.03;;;2.78;62.42
7966;BME280;4028;43.272;26.932;2022-12-13T13:22:52;98850.50;;;2.59;61.17
7966;BME280;4028;43.272;26.932;2022-12-13T13:25:31;98877.56;;;2.58;64.21
7966;BME280;4028;43.272;26.932;2022-12-13T13:28:10;98882.94;;;2.70;64.56
7966;BME280;4028;43.272;26.932;2022-12-13T13:31:02;98881.25;;;2.69;63.91
7966;BME280;4028;43.272;26.932;2022-12-13T13:33:42;98885.13;;;2.76;63.31
7966;BME280;4028;43.272;26.932;2022-12-13T13:36:08;98883.16;;;2.67;63.41
7966;BME280;4028;43.272;26.932;2022-12-13T13:38:50;98879.75;;;2.52;63.72
7966;BME280;4028;43.272;26.932;2022-12-13T13:41:39;98881.22;;;2.56;64.25
7966;BME280;4028;43.272;26.932;2022-12-13T13:44:34;98879.34;;;2.58;64.43
7966;BME280;4028;43.272;26.932;2022-12-13T13:50:03;98876.31;;;2.51;68.47
7966;BME280;4028;43.272;26.932;2022-12-13T14:01:07;98899.63;;;2.13;90.42
7966;BME280;4028;43.272;26.932;2022-12-13T14:28:47;98919.47;;;1.74;87.64
7966;BME280;4028;43.272;26.932;2022-12-13T14:31:33;98959.50;;;1.88;91.72
7966;BME280;4028;43.272;26.932;2022-12-13T14:34:00;98963.88;;;2.01;87.59
7966;BME280;4028;43.272;26.932;2022-12-13T14:36:31;98966.31;;;1.76;87.52
7966;BME280;4028;43.272;26.932;2022-12-13T14:39:19;98965.84;;;1.83;91.13
7966;BME280;4028;43.272;26.932;2022-12-13T14:41:47;98965.47;;;1.90;89.08
7966;BME280;4028;43.272;26.932;2022-12-13T14:44:14;98971.59;;;1.89;88.12
7966;BME280;4028;43.272;26.932;2022-12-13T14:46:51;98979.72;;;1.70;91.61
7966;BME280;4028;43.272;26.932;2022-12-13T14:49:18;98987.34;;;1.73;95.97
7966;BME280;4028;43.272;26.932;2022-12-13T14:51:45;98997.06;;;1.85;94.41
7966;BME280;4028;43.272;26.932;2022-12-13T14:54:20;99011.13;;;1.82;95.75
7966;BME280;4028;43.272;26.932;2022-12-13T14:57:00;99012.22;;;1.78;92.92
7966;BME280;4028;43.272;26.932;2022-12-13T14:59:27;99021.38;;;1.86;84.62
7966;BME280;4028;43.272;26.932;2022-12-13T15:01:55;99002.28;;;1.71;85.15
7966;BME280;4028;43.272;26.932;2022-12-13T15:04:28;99020.88;;;1.79;87.03
7966;BME280;4028;43.272;26.932;2022-12-13T15:10:38;99028.09;;;1.90;88.17
7966;BME280;4028;43.272;26.932;2022-12-13T15:12:40;99041.69;;;1.80;89.11
7966;BME280;4028;43.272;26.932;2022-12-13T15:15:07;99049.88;;;1.74;91.51
7966;BME280;4028;43.272;26.932;2022-12-13T15:17:40;99050.72;;;1.75;92.58
7966;BME280;4028;43.272;26.932;2022-12-13T15:22:46;99068.41;;;1.70;95.01
7966;BME280;4028;43.272;26.932;2022-12-13T15:25:12;99075.59;;;1.80;94.77
7966;BME280;4028;43.272;26.932;2022-12-13T15:27:39;99071.09;;;1.68;95.54
7966;BME280;4028;43.272;26.932;2022-12-13T15:30:06;99069.41;;;1.67;95.91